Time;durP1;ratioP1;P1;durP2;ratioP2;P2;SDS_P1;SDS_P2;PMS_P1;PMS_P2;Temp;Humidity;BMP_temperature;BMP_pressure;BME280_temperature;BME280_humidity;BME280_pressure;Samples;Min_cycle;Max_cycle;Signal;HPM_P1;HPM_P2
2021/05/26 00:01:50;;;;;;;;;;;512.90;2380.80;;;;;;5054633;28;19905;-79
2021/05/26 00:04:16;;;;;;;;;;;512.70;2380.80;;;;;;5054839;28;19905;-80
2021/05/26 00:06:41;;;;;;;;;;;512.60;2380.80;;;;;;5055075;28;19901;-79
2021/05/26 00:09:07;;;;;;;;;;;512.60;2380.80;;;;;;5054590;28;19954;-81
2021/05/26 00:11:33;;;;;;;;;;;512.50;2380.80;;;;;;5054696;28;19901;-80
2021/05/26 00:13:59;;;;;;;;;;;512.40;2380.80;;;;;;5053696;28;20366;-80
2021/05/26 00:16:25;;;;;;;;;;;487.30;2380.80;;;;;;5054676;28;19995;-80
2021/05/26 00:18:51;;;;;;;;;;;487.20;2380.80;;;;;;5053133;28;19955;-81
2021/05/26 00:21:18;;;;;;;;;;;487.30;2380.80;;;;;;5054417;28;19908;-81
2021/05/26 00:23:43;;;;;;;;;;;487.20;2380.80;;;;;;5053335;28;19912;-78
2021/05/26 00:26:09;;;;;;;;;;;487.30;2380.80;;;;;;5054446;28;19900;-80
2021/05/26 00:28:36;;;;;;;;;;;512.00;2380.80;;;;;;5053003;28;20255;-81
2021/05/26 00:31:04;;;;;;;;;;;512.00;2380.80;;;;;;5054135;28;19900;-80
2021/05/26 00:33:30;;;;;;;;;;;487.00;2380.80;;;;;;5052917;28;19923;-81
2021/05/26 00:35:55;;;;;;;;;;;487.00;2380.80;;;;;;5053292;28;20392;-82
2021/05/26 00:38:21;;;;;;;;;;;486.80;2380.80;;;;;;5054221;28;19996;-81
2021/05/26 00:40:48;;;;;;;;;;;486.70;2380.80;;;;;;5052839;28;19999;-81
2021/05/26 00:43:14;;;;;;;;;;;486.80;2380.80;;;;;;5054182;28;19962;-81
2021/05/26 00:45:40;;;;;;;;;;;486.80;2380.80;;;;;;5053074;28;19900;-81
2021/05/26 00:48:06;;;;;;;;;;;486.80;2380.80;;;;;;5052910;28;19950;-78
2021/05/26 00:50:33;;;;;;;;;;;486.80;2380.80;;;;;;5052926;28;20260;-78
2021/05/26 00:53:00;;;;;;;;;;;486.80;2380.80;;;;;;5053132;28;19901;-78
2021/05/26 00:55:25;;;;;;;;;;;486.70;2380.80;;;;;;5053826;28;19927;-79
2021/05/26 00:57:51;;;;;;;;;;;486.80;2380.80;;;;;;5054165;28;19901;-79
2021/05/26 01:00:19;;;;;;;;;;;486.80;2380.80;;;;;;5053056;28;20288;-80
2021/05/26 01:02:45;;;;;;;;;;;486.70;2380.80;;;;;;5052704;28;19905;-79
2021/05/26 01:05:12;;;;;;;;;;;486.60;2380.80;;;;;;5052816;28;19911;-79
2021/05/26 01:07:39;;;;;;;;;;;486.40;2380.80;;;;;;5052684;28;20252;-80
2021/05/26 01:10:06;;;;;;;;;;;461.60;2380.80;;;;;;5054365;28;19912;-80
2021/05/26 01:12:32;;;;;;;;;;;461.50;2380.80;;;;;;5054264;28;20259;-81
2021/05/26 01:14:57;;;;;;;;;;;461.40;2380.80;;;;;;5052670;28;19915;-80
2021/05/26 01:17:23;;;;;;;;;;;461.40;2380.80;;;;;;5052978;28;19900;-81
2021/05/26 01:19:48;;;;;;;;;;;461.50;2380.80;;;;;;5053982;28;19904;-80
2021/05/26 01:22:14;;;;;;;;;;;461.60;2380.80;;;;;;5052615;28;19958;-80
2021/05/26 01:24:40;;;;;;;;;;;461.70;2380.80;;;;;;5052770;28;19904;-80
2021/05/26 01:27:05;;;;;;;;;;;486.40;2380.80;;;;;;5053516;28;20097;-79
2021/05/26 01:29:31;;;;;;;;;;;486.40;2380.80;;;;;;5054448;28;19901;-80
2021/05/26 01:31:57;;;;;;;;;;;486.40;2380.80;;;;;;5054798;28;20336;-80
2021/05/26 01:34:23;;;;;;;;;;;486.40;2380.80;;;;;;5054492;28;19900;-80
2021/05/26 01:36:48;;;;;;;;;;;461.60;2380.80;;;;;;5053820;28;19905;-80
2021/05/26 01:39:16;;;;;;;;;;;461.70;2380.80;;;;;;5053800;28;19919;-81
2021/05/26 01:41:42;;;;;;;;;;;486.40;2380.80;;;;;;5053863;28;19904;-80
2021/05/26 01:44:08;;;;;;;;;;;461.70;2380.80;;;;;;5053931;28;19944;-80
2021/05/26 01:46:33;;;;;;;;;;;486.80;2380.80;;;;;;5054398;28;20288;-81
2021/05/26 01:48:59;;;;;;;;;;;461.50;2380.80;;;;;;5056509;28;19900;-81
2021/05/26 01:51:24;;;;;;;;;;;461.60;2380.80;;;;;;5056200;28;20307;-81
2021/05/26 01:53:51;;;;;;;;;;;461.70;2380.80;;;;;;5057149;28;20414;-81
2021/05/26 01:56:18;;;;;;;;;;;461.70;2380.80;;;;;;5056211;28;20350;-81
2021/05/26 01:58:44;;;;;;;;;;;461.50;2380.80;;;;;;5056072;28;19908;-80
2021/05/26 02:01:10;;;;;;;;;;;461.30;2380.80;;;;;;5057524;28;19908;-81
2021/05/26 02:03:39;;;;;;;;;;;461.40;2380.80;;;;;;5056060;28;19905;-81
2021/05/26 02:06:06;;;;;;;;;;;461.30;2329.60;;;;;;5057139;28;19913;-81
2021/05/26 02:08:32;;;;;;;;;;;461.20;2329.60;;;;;;5056078;28;20332;-80
2021/05/26 02:13:42;;;;;;;;;;;461.30;2278.40;;;;;;5057322;28;19922;-81
2021/05/26 02:16:07;;;;;;;;;;;461.20;2278.40;;;;;;5055884;28;19905;-81
2021/05/26 02:18:33;;;;;;;;;;;461.00;2252.80;;;;;;5055801;28;19901;-81
2021/05/26 02:20:58;;;;;;;;;;;460.90;2252.80;;;;;;5055494;28;19900;-81
2021/05/26 02:23:24;;;;;;;;;;;436.10;2252.80;;;;;;5055889;28;19959;-81
2021/05/26 02:25:50;;;;;;;;;;;460.80;2227.20;;;;;;5056873;28;20356;-81
2021/05/26 02:28:15;;;;;;;;;;;436.00;2227.20;;;;;;5056681;28;19900;-81
2021/05/26 02:30:41;;;;;;;;;;;436.00;2227.20;;;;;;5056943;28;20344;-81
2021/05/26 02:33:07;;;;;;;;;;;436.00;2227.20;;;;;;5055481;28;19950;-81
2021/05/26 02:35:32;;;;;;;;;;;435.90;2227.20;;;;;;5055574;28;19954;-81
2021/05/26 02:37:58;;;;;;;;;;;436.00;2227.20;;;;;;5055624;28;19900;-81
2021/05/26 02:40:23;;;;;;;;;;;435.90;2227.20;;;;;;5056775;28;19900;-80
2021/05/26 02:42:49;;;;;;;;;;;436.00;2252.80;;;;;;5056389;28;20003;-81
2021/05/26 02:45:15;;;;;;;;;;;435.90;2227.20;;;;;;5055473;28;19908;-81
2021/05/26 02:47:41;;;;;;;;;;;435.70;2227.20;;;;;;5055502;28;19900;-82
2021/05/26 02:50:06;;;;;;;;;;;435.70;2252.80;;;;;;5055458;28;19951;-81
2021/05/26 02:52:32;;;;;;;;;;;435.80;2227.20;;;;;;5055134;28;20275;-80
2021/05/26 02:54:58;;;;;;;;;;;435.80;2227.20;;;;;;5055288;28;19900;-81
2021/05/26 02:57:23;;;;;;;;;;;435.60;2227.20;;;;;;5054331;28;19901;-80
2021/05/26 02:59:49;;;;;;;;;;;435.60;2227.20;;;;;;5054903;28;20297;-81
2021/05/26 03:02:14;;;;;;;;;;;435.50;2227.20;;;;;;5055056;28;19994;-81
2021/05/26 03:04:40;;;;;;;;;;;435.60;2227.20;;;;;;5055086;28;20012;-81
2021/05/26 03:07:06;;;;;;;;;;;435.50;2252.80;;;;;;5055037;28;20256;-81
2021/05/26 03:09:31;;;;;;;;;;;435.40;2227.20;;;;;;5054764;28;19901;-81
2021/05/26 03:11:57;;;;;;;;;;;435.50;2227.20;;;;;;5054991;28;19983;-81
2021/05/26 03:14:23;;;;;;;;;;;435.30;2252.80;;;;;;5054765;28;20336;-81
2021/05/26 03:16:49;;;;;;;;;;;435.30;2252.80;;;;;;5055959;28;19900;-80
2021/05/26 03:19:14;;;;;;;;;;;435.20;2278.40;;;;;;5054832;28;19900;-80
2021/05/26 03:21:40;;;;;;;;;;;435.20;2278.40;;;;;;5054353;28;19912;-81
2021/05/26 03:24:07;;;;;;;;;;;435.50;2278.40;;;;;;5054676;28;19916;-81
2021/05/26 03:26:33;;;;;;;;;;;435.50;2278.40;;;;;;5054566;28;19954;-80
2021/05/26 03:28:59;;;;;;;;;;;435.30;2252.80;;;;;;5054479;28;20256;-79
2021/05/26 03:31:24;;;;;;;;;;;410.50;2252.80;;;;;;5054480;28;19911;-80
2021/05/26 03:33:50;;;;;;;;;;;435.30;2252.80;;;;;;5055542;28;19947;-80
2021/05/26 03:36:16;;;;;;;;;;;410.50;2278.40;;;;;;5055086;28;19984;-81
2021/05/26 03:38:41;;;;;;;;;;;410.40;2304.00;;;;;;5055293;28;20003;-80
2021/05/26 03:41:07;;;;;;;;;;;410.50;2304.00;;;;;;5054040;28;19986;-81
2021/05/26 03:43:32;;;;;;;;;;;410.50;2304.00;;;;;;5053990;28;19905;-81
2021/05/26 03:45:58;;;;;;;;;;;410.50;2278.40;;;;;;5055287;28;20332;-81
2021/05/26 03:48:24;;;;;;;;;;;435.20;2278.40;;;;;;5055422;28;20226;-81
2021/05/26 03:50:49;;;;;;;;;;;410.50;2304.00;;;;;;5053998;28;19900;-80
2021/05/26 03:53:15;;;;;;;;;;;435.20;2304.00;;;;;;5055365;28;19905;-81
2021/05/26 03:55:41;;;;;;;;;;;435.20;2304.00;;;;;;5053750;28;19901;-80
2021/05/26 03:58:06;;;;;;;;;;;410.50;2304.00;;;;;;5055341;28;19900;-82
2021/05/26 04:00:32;;;;;;;;;;;435.20;2304.00;;;;;;5055594;28;19908;-80
2021/05/26 04:02:57;;;;;;;;;;;410.50;2329.60;;;;;;5053733;28;19959;-80
2021/05/26 04:05:23;;;;;;;;;;;435.20;2329.60;;;;;;5054635;28;19999;-81
2021/05/26 04:07:49;;;;;;;;;;;435.20;2304.00;;;;;;5053183;28;19907;-81
2021/05/26 04:10:14;;;;;;;;;;;410.50;2329.60;;;;;;5053742;28;19905;-81
2021/05/26 04:12:40;;;;;;;;;;;410.50;2355.20;;;;;;5053721;28;19908;-81
2021/05/26 04:15:07;;;;;;;;;;;435.20;2329.60;;;;;;5053381;28;19907;-81
2021/05/26 04:17:33;;;;;;;;;;;410.50;2355.20;;;;;;5054103;28;20337;-81
2021/05/26 04:20:02;;;;;;;;;;;410.50;2355.20;;;;;;5053611;28;20325;-81
2021/05/26 04:22:28;;;;;;;;;;;435.20;2355.20;;;;;;5053186;28;19904;-81
2021/05/26 04:24:54;;;;;;;;;;;410.20;2355.20;;;;;;5054869;28;19915;-82
2021/05/26 04:27:20;;;;;;;;;;;410.50;2355.20;;;;;;5054683;28;19954;-80
2021/05/26 04:29:45;;;;;;;;;;;410.50;2355.20;;;;;;5054747;28;19901;-79
2021/05/26 04:32:11;;;;;;;;;;;410.40;2355.20;;;;;;5053473;28;19901;-80
2021/05/26 04:34:36;;;;;;;;;;;410.30;2355.20;;;;;;5054936;28;19947;-81
2021/05/26 04:37:02;;;;;;;;;;;410.30;2355.20;;;;;;5053526;28;19900;-80
2021/05/26 04:39:28;;;;;;;;;;;410.30;2355.20;;;;;;5052835;28;19913;-80
2021/05/26 04:41:53;;;;;;;;;;;410.30;2355.20;;;;;;5053031;28;20046;-80
2021/05/26 04:44:19;;;;;;;;;;;410.20;2355.20;;;;;;5054671;28;19944;-80
2021/05/26 04:46:45;;;;;;;;;;;410.40;2355.20;;;;;;5054708;28;19911;-81
2021/05/26 04:49:12;;;;;;;;;;;410.40;2355.20;;;;;;5053085;28;20260;-80
2021/05/26 04:51:38;;;;;;;;;;;410.50;2355.20;;;;;;5054743;28;19900;-81
2021/05/26 04:54:03;;;;;;;;;;;410.50;2355.20;;;;;;5054534;28;19901;-81
2021/05/26 04:56:29;;;;;;;;;;;435.20;2329.60;;;;;;5053698;28;19901;-81
2021/05/26 04:58:54;;;;;;;;;;;435.20;2329.60;;;;;;5053885;28;20312;-80
2021/05/26 05:01:21;;;;;;;;;;;435.30;2329.60;;;;;;5049223;28;19909;-81
2021/05/26 05:03:47;;;;;;;;;;;435.30;2304.00;;;;;;5055197;28;19999;-81
2021/05/26 05:06:13;;;;;;;;;;;435.40;2304.00;;;;;;5054251;28;19951;-82
2021/05/26 05:08:38;;;;;;;;;;;435.50;2304.00;;;;;;5054202;28;19947;-82
2021/05/26 05:11:04;;;;;;;;;;;435.50;2304.00;;;;;;5069143;28;20129;-81
2021/05/26 05:13:30;;;;;;;;;;;435.60;2278.40;;;;;;5049152;28;19905;-81
2021/05/26 05:15:56;;;;;;;;;;;435.60;2304.00;;;;;;5034000;28;19940;-81
2021/05/26 05:18:22;;;;;;;;;;;435.60;2278.40;;;;;;5050765;28;19951;-81
2021/05/26 05:20:47;;;;;;;;;;;435.60;2304.00;;;;;;5052537;28;19961;-80
2021/05/26 05:23:13;;;;;;;;;;;435.70;2278.40;;;;;;5057868;28;19927;-80
2021/05/26 05:25:39;;;;;;;;;;;435.70;2278.40;;;;;;5056744;28;19904;-81
2021/05/26 05:28:05;;;;;;;;;;;435.80;2278.40;;;;;;5056244;28;19908;-81
2021/05/26 05:30:31;;;;;;;;;;;435.70;2278.40;;;;;;5055833;28;19901;-81
2021/05/26 05:32:57;;;;;;;;;;;435.80;2278.40;;;;;;5057748;28;19901;-83
2021/05/26 05:35:23;;;;;;;;;;;435.70;2278.40;;;;;;5056353;28;19900;-84
2021/05/26 05:37:48;;;;;;;;;;;435.60;2278.40;;;;;;5057969;28;20383;-82
2021/05/26 05:40:14;;;;;;;;;;;435.80;2304.00;;;;;;5057672;28;20463;-84
2021/05/26 05:42:40;;;;;;;;;;;435.90;2278.40;;;;;;5054895;28;19955;-85
2021/05/26 05:45:05;;;;;;;;;;;436.00;2278.40;;;;;;5072018;28;19904;-84
2021/05/26 05:47:32;;;;;;;;;;;460.80;2278.40;;;;;;5057150;28;20395;-81
2021/05/26 05:49:58;;;;;;;;;;;436.10;2227.20;;;;;;5072734;28;19907;-81
2021/05/26 05:52:23;;;;;;;;;;;436.10;2252.80;;;;;;5057967;28;19904;-81
2021/05/26 05:54:49;;;;;;;;;;;460.80;2252.80;;;;;;5056418;28;19988;-79
2021/05/26 05:57:16;;;;;;;;;;;460.90;2252.80;;;;;;5073000;28;19905;-79
2021/05/26 05:59:42;;;;;;;;;;;461.10;2227.20;;;;;;5057388;28;20343;-77
2021/05/26 06:02:07;;;;;;;;;;;461.20;2227.20;;;;;;5072537;28;19951;-79
2021/05/26 06:04:33;;;;;;;;;;;461.40;2201.60;;;;;;5072830;28;19905;-79
2021/05/26 06:06:58;;;;;;;;;;;461.30;2176.00;;;;;;5057079;28;19908;-79
2021/05/26 06:09:24;;;;;;;;;;;461.10;2201.60;;;;;;5055878;28;19907;-78
2021/05/26 06:11:50;;;;;;;;;;;461.10;2201.60;;;;;;5057143;28;19908;-79
2021/05/26 06:14:18;;;;;;;;;;;461.10;2201.60;;;;;;5056110;28;19911;-79
2021/05/26 06:16:44;;;;;;;;;;;460.80;2201.60;;;;;;5072375;28;19901;-81
2021/05/26 06:19:10;;;;;;;;;;;460.80;2201.60;;;;;;5055991;28;19908;-81
2021/05/26 06:21:36;;;;;;;;;;;461.00;2227.20;;;;;;5055902;28;19904;-81
2021/05/26 06:24:02;;;;;;;;;;;461.20;2201.60;;;;;;5056657;28;19905;-81
2021/05/26 06:26:31;;;;;;;;;;;461.60;2176.00;;;;;;5072460;28;20319;-81
2021/05/26 06:28:58;;;;;;;;;;;461.40;2176.00;;;;;;5055901;28;19905;-81
2021/05/26 06:31:24;;;;;;;;;;;461.40;2176.00;;;;;;5056739;28;19900;-79
2021/05/26 06:33:49;;;;;;;;;;;461.50;2176.00;;;;;;5057210;28;19908;-78
2021/05/26 06:36:15;;;;;;;;;;;461.50;2176.00;;;;;;5055588;28;19904;-79
2021/05/26 06:38:41;;;;;;;;;;;461.50;2201.60;;;;;;5055079;28;19919;-81
2021/05/26 06:41:06;;;;;;;;;;;486.40;2176.00;;;;;;5055448;28;20233;-81
2021/05/26 06:43:32;;;;;;;;;;;461.70;2150.40;;;;;;5072153;28;19904;-81
2021/05/26 06:45:58;;;;;;;;;;;486.40;2150.40;;;;;;5056769;28;19900;-80
2021/05/26 06:48:24;;;;;;;;;;;486.50;2150.40;;;;;;5056451;28;19907;-81
2021/05/26 06:50:49;;;;;;;;;;;486.60;2124.80;;;;;;5055125;28;20021;-78
2021/05/26 06:53:15;;;;;;;;;;;486.80;2099.20;;;;;;5071919;28;20351;-79
2021/05/26 06:55:41;;;;;;;;;;;487.00;2099.20;;;;;;5055060;28;19901;-79
2021/05/26 06:58:06;;;;;;;;;;;486.90;2099.20;;;;;;5055000;28;19969;-79
2021/05/26 07:00:33;;;;;;;;;;;486.80;2099.20;;;;;;5055091;28;19901;-80
2021/05/26 07:02:58;;;;;;;;;;;487.00;2073.60;;;;;;5071560;28;19927;-79
2021/05/26 07:05:24;;;;;;;;;;;487.00;2048.00;;;;;;5054785;28;19905;-80
2021/05/26 07:07:50;;;;;;;;;;;487.00;2073.60;;;;;;5054884;28;19901;-81
2021/05/26 07:10:19;;;;;;;;;;;487.00;2048.00;;;;;;5056753;28;19944;-81
2021/05/26 07:12:46;;;;;;;;;;;487.10;2048.00;;;;;;5071658;28;19901;-80
2021/05/26 07:15:12;;;;;;;;;;;487.10;2022.40;;;;;;5054773;28;19901;-81
2021/05/26 07:17:38;;;;;;;;;;;487.20;2022.40;;;;;;5055984;28;19908;-80
2021/05/26 07:20:04;;;;;;;;;;;487.30;2022.40;;;;;;5055811;28;19901;-80
2021/05/26 07:22:29;;;;;;;;;;;487.30;2022.40;;;;;;5071234;28;19905;-80
2021/05/26 07:24:55;;;;;;;;;;;512.10;1996.80;;;;;;5071360;28;19916;-80
2021/05/26 07:27:21;;;;;;;;;;;512.30;1996.80;;;;;;5054408;28;19908;-81
2021/05/26 07:29:46;;;;;;;;;;;512.20;1971.20;;;;;;5054378;28;19905;-80
2021/05/26 07:32:12;;;;;;;;;;;512.20;1971.20;;;;;;5054271;28;19900;-80
2021/05/26 07:34:37;;;;;;;;;;;512.30;1945.60;;;;;;5055677;28;19900;-81
2021/05/26 07:37:03;;;;;;;;;;;512.30;1920.00;;;;;;5054379;28;20333;-80
2021/05/26 07:39:34;;;;;;;;;;;512.30;1920.00;;;;;;5055508;28;19913;-80
2021/05/26 07:42:00;;;;;;;;;;;512.20;1894.40;;;;;;5071019;28;19908;-80
2021/05/26 07:44:26;;;;;;;;;;;512.40;1920.00;;;;;;5053354;28;19904;-80
2021/05/26 07:46:54;;;;;;;;;;;512.60;1894.40;;;;;;5054015;28;19938;-80
2021/05/26 07:49:20;;;;;;;;;;;512.80;1920.00;;;;;;5054233;28;19954;-81
2021/05/26 07:51:50;;;;;;;;;;;537.60;1894.40;;;;;;5055256;28;19991;-80
2021/05/26 07:54:15;;;;;;;;;;;537.60;1894.40;;;;;;5053890;28;19959;-81
2021/05/26 07:56:41;;;;;;;;;;;537.70;1868.80;;;;;;5054108;28;20264;-82
2021/05/26 07:59:06;;;;;;;;;;;537.60;1868.80;;;;;;5053862;28;19900;-81
2021/05/26 08:01:32;;;;;;;;;;;537.60;1868.80;;;;;;5053615;28;19976;-80
2021/05/26 08:03:58;;;;;;;;;;;537.90;1868.80;;;;;;5055057;28;19904;-79
2021/05/26 08:06:23;;;;;;;;;;;537.70;1868.80;;;;;;5053870;28;19901;-80
2021/05/26 08:08:49;;;;;;;;;;;538.00;1868.80;;;;;;5053329;28;19904;-80
2021/05/26 08:11:15;;;;;;;;;;;538.10;1868.80;;;;;;5053675;28;19904;-81
2021/05/26 08:13:40;;;;;;;;;;;538.20;1817.60;;;;;;5054566;28;19907;-80
2021/05/26 08:16:07;;;;;;;;;;;538.10;1817.60;;;;;;5071141;28;19987;-79
2021/05/26 08:18:32;;;;;;;;;;;538.30;1817.60;;;;;;5053826;28;20350;-80
2021/05/26 08:20:58;;;;;;;;;;;538.40;1817.60;;;;;;5054497;28;19983;-80
2021/05/26 08:23:26;;;;;;;;;;;538.50;1792.00;;;;;;5053387;28;19905;-80
2021/05/26 08:25:51;;;;;;;;;;;563.30;1817.60;;;;;;5053479;28;19900;-82
2021/05/26 08:28:17;;;;;;;;;;;563.40;1817.60;;;;;;5053486;28;19908;-80
2021/05/26 08:30:44;;;;;;;;;;;538.40;1792.00;;;;;;5053235;28;20359;-82
2021/05/26 08:33:10;;;;;;;;;;;538.50;1817.60;;;;;;5053382;28;19907;-81
2021/05/26 08:35:36;;;;;;;;;;;563.40;1766.40;;;;;;5054711;28;19983;-80
2021/05/26 08:38:02;;;;;;;;;;;563.50;1766.40;;;;;;5053214;28;20244;-81
2021/05/26 08:40:28;;;;;;;;;;;563.80;1740.80;;;;;;5054304;28;19901;-79
2021/05/26 08:42:54;;;;;;;;;;;563.50;1740.80;;;;;;5054231;28;19904;-80
2021/05/26 08:45:20;;;;;;;;;;;563.90;1766.40;;;;;;5054472;28;20026;-81
2021/05/26 08:47:45;;;;;;;;;;;564.10;1689.60;;;;;;5053126;28;20015;-81
2021/05/26 08:50:13;;;;;;;;;;;564.10;1689.60;;;;;;5054519;28;19901;-80
2021/05/26 08:52:40;;;;;;;;;;;564.00;1689.60;;;;;;5069803;28;20356;-80
2021/05/26 08:55:06;;;;;;;;;;;564.00;1689.60;;;;;;5052411;28;20360;-80
2021/05/26 08:57:32;;;;;;;;;;;564.00;1664.00;;;;;;5069114;28;19916;-80
2021/05/26 08:59:57;;;;;;;;;;;588.80;1638.40;;;;;;5069561;28;19904;-81
2021/05/26 09:02:23;;;;;;;;;;;588.80;1664.00;;;;;;5052968;28;19905;-81
2021/05/26 09:04:49;;;;;;;;;;;589.30;1689.60;;;;;;5052771;28;19912;-81
2021/05/26 09:07:15;;;;;;;;;;;589.60;1638.40;;;;;;5069506;28;19927;-82
2021/05/26 09:09:49;;;;;;;;;;;589.50;1612.80;;;;;;5052992;28;19944;-82
2021/05/26 09:12:22;;;;;;;;;;;589.50;1638.40;;;;;;5052707;28;20320;-80
2021/05/26 09:14:47;;;;;;;;;;;614.50;1638.40;;;;;;5054598;28;19947;-81
2021/05/26 09:17:13;;;;;;;;;;;614.50;1612.80;;;;;;5053894;28;19900;-79
2021/05/26 09:19:39;;;;;;;;;;;589.70;1612.80;;;;;;5052608;28;20390;-82
2021/05/26 09:22:14;;;;;;;;;;;589.70;1612.80;;;;;;5052807;28;19905;-83
2021/05/26 09:24:40;;;;;;;;;;;589.70;1638.40;;;;;;5052657;28;19904;-79
2021/05/26 09:27:08;;;;;;;;;;;614.40;1612.80;;;;;;5053911;28;19900;-79
2021/05/26 09:29:41;;;;;;;;;;;589.60;1689.60;;;;;;5052584;28;19901;-80
2021/05/26 09:32:09;;;;;;;;;;;614.40;1638.40;;;;;;5052319;28;19901;-78
2021/05/26 09:34:36;;;;;;;;;;;614.60;1612.80;;;;;;5052645;28;19911;-78
2021/05/26 09:37:05;;;;;;;;;;;614.50;1638.40;;;;;;5052466;28;20352;-79
2021/05/26 09:39:47;;;;;;;;;;;589.60;1766.40;;;;;;5052064;28;19951;-80
2021/05/26 09:42:22;;;;;;;;;;;589.70;1715.20;;;;;;5052383;28;20015;-80
2021/05/26 09:45:07;;;;;;;;;;;614.80;1715.20;;;;;;5052569;28;19904;-81
2021/05/26 09:47:34;;;;;;;;;;;614.60;1664.00;;;;;;5052457;28;19954;-81
2021/05/26 09:50:20;;;;;;;;;;;589.50;1715.20;;;;;;5052678;28;19991;-82
2021/05/26 09:53:04;;;;;;;;;;;589.50;1689.60;;;;;;5052665;28;20242;-81
2021/05/26 09:55:33;;;;;;;;;;;615.00;1689.60;;;;;;5053575;28;19908;-83
2021/05/26 09:57:59;;;;;;;;;;;615.20;1612.80;;;;;;5054307;28;19900;-83
2021/05/26 10:00:26;;;;;;;;;;;640.20;1587.20;;;;;;5052669;28;19901;-82
2021/05/26 10:02:51;;;;;;;;;;;615.30;1612.80;;;;;;5052775;28;19904;-83
2021/05/26 10:05:19;;;;;;;;;;;640.20;1612.80;;;;;;5053902;28;19911;-78
2021/05/26 10:07:49;;;;;;;;;;;640.00;1561.60;;;;;;5054203;28;19907;-78
2021/05/26 10:10:15;;;;;;;;;;;614.70;1638.40;;;;;;5056121;28;19949;-78
2021/05/26 10:12:42;;;;;;;;;;;614.40;1638.40;;;;;;5073206;28;19901;-83
2021/05/26 10:15:09;;;;;;;;;;;614.90;1638.40;;;;;;5055513;28;19908;-82
2021/05/26 10:17:41;;;;;;;;;;;640.50;1587.20;;;;;;5055782;28;19900;-80
2021/05/26 10:20:11;;;;;;;;;;;665.60;1561.60;;;;;;5055658;28;19991;-82
2021/05/26 10:22:37;;;;;;;;;;;640.70;1561.60;;;;;;5055923;28;20280;-83
2021/05/26 10:25:04;;;;;;;;;;;640.40;1536.00;;;;;;5056102;28;19991;-83
2021/05/26 10:27:31;;;;;;;;;;;640.50;1536.00;;;;;;5072585;28;19901;-83
2021/05/26 10:29:57;;;;;;;;;;;640.40;1536.00;;;;;;5056020;28;20252;-83
2021/05/26 10:32:24;;;;;;;;;;;640.60;1510.40;;;;;;5056308;28;19907;-81
2021/05/26 10:34:51;;;;;;;;;;;640.60;1484.80;;;;;;5056111;28;19901;-85
2021/05/26 10:37:27;;;;;;;;;;;665.60;1561.60;;;;;;5056993;28;19928;-86
2021/05/26 10:39:53;;;;;;;;;;;665.70;1484.80;;;;;;5058639;28;19955;-83
2021/05/26 10:42:26;;;;;;;;;;;666.50;1459.20;;;;;;5060613;28;20278;-82
2021/05/26 10:45:05;;;;;;;;;;;691.40;1484.80;;;;;;5062828;28;20337;-84
2021/05/26 10:47:37;;;;;;;;;;;691.40;1433.60;;;;;;5064611;28;19908;-81
2021/05/26 10:50:03;;;;;;;;;;;691.80;1433.60;;;;;;5063644;28;20003;-85
2021/05/26 10:52:29;;;;;;;;;;;692.00;1408.00;;;;;;5062101;28;19957;-81
2021/05/26 10:54:55;;;;;;;;;;;716.80;1408.00;;;;;;5062581;28;20352;-82
2021/05/26 10:57:21;;;;;;;;;;;691.40;1408.00;;;;;;5061133;28;19923;-83
2021/05/26 11:00:06;;;;;;;;;;;691.30;1433.60;;;;;;5062273;28;20320;-84
2021/05/26 11:02:31;;;;;;;;;;;691.60;1433.60;;;;;;5057643;28;19908;-83
2021/05/26 11:05:17;;;;;;;;;;;716.80;1433.60;;;;;;5057478;28;19988;-82
2021/05/26 11:07:42;;;;;;;;;;;717.20;1433.60;;;;;;5056642;28;19900;-85
2021/05/26 11:10:08;;;;;;;;;;;717.70;1408.00;;;;;;5056828;28;19951;-87
2021/05/26 11:12:52;;;;;;;;;;;717.50;1382.40;;;;;;5056144;28;19908;-85
2021/05/26 11:15:37;;;;;;;;;;;742.40;1433.60;;;;;;5059710;28;19943;-82
2021/05/26 11:18:16;;;;;;;;;;;742.50;1408.00;;;;;;5058062;28;19916;-85
2021/05/26 11:20:41;;;;;;;;;;;717.70;1356.80;;;;;;5058038;28;20366;-83
2021/05/26 11:23:11;;;;;;;;;;;742.50;1408.00;;;;;;5056285;28;19940;-82
2021/05/26 11:25:37;;;;;;;;;;;742.40;1331.20;;;;;;5055021;28;20003;-81
2021/05/26 11:28:02;;;;;;;;;;;717.70;1331.20;;;;;;5054821;28;19956;-82
2021/05/26 11:30:28;;;;;;;;;;;717.10;1382.40;;;;;;5055677;28;19950;-83
2021/05/26 11:32:54;;;;;;;;;;;717.70;1356.80;;;;;;5055655;28;19907;-82
2021/05/26 11:35:20;;;;;;;;;;;717.10;1382.40;;;;;;5060007;28;19948;-83
2021/05/26 11:37:45;;;;;;;;;;;717.40;1382.40;;;;;;5059407;28;19908;-83
2021/05/26 11:40:19;;;;;;;;;;;742.70;1408.00;;;;;;5072209;28;19900;-82
2021/05/26 11:42:44;;;;;;;;;;;743.00;1382.40;;;;;;5055190;28;19980;-83
2021/05/26 11:45:11;;;;;;;;;;;768.00;1356.80;;;;;;5055221;28;19958;-83
2021/05/26 11:48:09;;;;;;;;;;;768.10;1331.20;;;;;;5055391;28;20439;-82
2021/05/26 11:50:36;;;;;;;;;;;768.50;1331.20;;;;;;5032364;28;20099;-84
2021/05/26 11:53:02;;;;;;;;;;;768.00;1305.60;;;;;;5054873;28;19900;-84
2021/05/26 11:55:28;;;;;;;;;;;768.10;1305.60;;;;;;5054328;28;20405;-83
2021/05/26 11:57:55;;;;;;;;;;;743.00;1331.20;;;;;;5054396;28;19901;-82
2021/05/26 12:00:23;;;;;;;;;;;768.10;1331.20;;;;;;5054270;28;19944;-82
2021/05/26 12:02:57;;;;;;;;;;;768.10;1331.20;;;;;;5054593;28;19995;-82
2021/05/26 12:05:35;;;;;;;;;;;768.30;1331.20;;;;;;5054750;28;19940;-82
2021/05/26 12:08:01;;;;;;;;;;;768.50;1305.60;;;;;;5054760;28;19901;-83
2021/05/26 12:10:28;;;;;;;;;;;768.20;1305.60;;;;;;5054431;28;20046;-83
2021/05/26 12:13:00;;;;;;;;;;;768.40;1331.20;;;;;;5054385;28;19901;-83
2021/05/26 12:15:27;;;;;;;;;;;768.70;1254.40;;;;;;5054586;28;20259;-87
2021/05/26 12:17:53;;;;;;;;;;;768.90;1254.40;;;;;;5055112;28;19901;-87
2021/05/26 12:20:19;;;;;;;;;;;793.60;1305.60;;;;;;5054524;28;19900;-84
2021/05/26 12:22:45;;;;;;;;;;;794.00;1305.60;;;;;;5055043;28;19979;-85
2021/05/26 12:25:11;;;;;;;;;;;793.80;1305.60;;;;;;5056258;28;19912;-84
2021/05/26 12:27:44;;;;;;;;;;;768.80;1254.40;;;;;;5054737;28;19901;-82
2021/05/26 12:30:13;;;;;;;;;;;793.70;1280.00;;;;;;5054383;28;19901;-84
2021/05/26 12:32:39;;;;;;;;;;;794.00;1280.00;;;;;;5054879;28;19950;-82
2021/05/26 12:35:15;;;;;;;;;;;794.20;1228.80;;;;;;5054423;28;20264;-84
2021/05/26 12:37:46;;;;;;;;;;;793.60;1254.40;;;;;;5054796;28;19909;-78
2021/05/26 12:40:15;;;;;;;;;;;768.90;1203.20;;;;;;5053497;28;20253;-81
2021/05/26 12:42:41;;;;;;;;;;;793.70;1280.00;;;;;;5053242;28;19908;-81
2021/05/26 12:45:20;;;;;;;;;;;794.00;1254.40;;;;;;5053654;28;19904;-83
2021/05/26 12:47:47;;;;;;;;;;;794.00;1254.40;;;;;;5055794;28;19911;-81
2021/05/26 12:50:14;;;;;;;;;;;794.20;1254.40;;;;;;5054195;28;19901;-82
2021/05/26 12:52:39;;;;;;;;;;;793.80;1228.80;;;;;;5053717;28;19901;-82
2021/05/26 12:55:06;;;;;;;;;;;768.40;1254.40;;;;;;5053813;28;19904;-82
2021/05/26 12:57:32;;;;;;;;;;;768.60;1254.40;;;;;;5053455;28;20034;-84
2021/05/26 13:00:01;;;;;;;;;;;768.60;1254.40;;;;;;5053985;28;19974;-88
2021/05/26 13:02:28;;;;;;;;;;;768.80;1254.40;;;;;;5053439;28;20001;-81
2021/05/26 13:04:54;;;;;;;;;;;768.50;1228.80;;;;;;5053356;28;19990;-85
2021/05/26 13:07:24;;;;;;;;;;;768.60;1228.80;;;;;;5053729;28;20280;-89
2021/05/26 13:09:50;;;;;;;;;;;768.60;1280.00;;;;;;5053955;28;19950;-85
2021/05/26 13:12:25;;;;;;;;;;;768.90;1228.80;;;;;;5054337;28;19904;-89
2021/05/26 13:14:50;;;;;;;;;;;793.80;1305.60;;;;;;5054007;28;19944;-85
2021/05/26 13:17:27;;;;;;;;;;;793.80;1280.00;;;;;;5053826;28;19901;-84
2021/05/26 13:19:53;;;;;;;;;;;793.70;1254.40;;;;;;5054197;28;19908;-83
2021/05/26 13:22:19;;;;;;;;;;;794.00;1280.00;;;;;;5053544;28;19905;-83
2021/05/26 13:24:47;;;;;;;;;;;768.60;1254.40;;;;;;5052956;28;20370;-83
2021/05/26 13:27:13;;;;;;;;;;;768.50;1280.00;;;;;;5052759;28;19908;-83
2021/05/26 13:29:39;;;;;;;;;;;768.80;1254.40;;;;;;5052702;28;19900;-83
2021/05/26 13:32:04;;;;;;;;;;;793.70;1305.60;;;;;;5053064;28;19904;-83
2021/05/26 13:34:30;;;;;;;;;;;794.10;1280.00;;;;;;5052947;28;19901;-83
2021/05/26 13:36:56;;;;;;;;;;;794.30;1254.40;;;;;;5056505;28;19905;-86
2021/05/26 13:39:21;;;;;;;;;;;794.40;1254.40;;;;;;5054831;28;19920;-83
2021/05/26 13:42:19;;;;;;;;;;;794.00;1228.80;;;;;;5054216;28;19905;-86
2021/05/26 13:44:45;;;;;;;;;;;794.20;1254.40;;;;;;5057391;28;20391;-86